createdAt,value
2022-09-02T00:01:14.715Z,1.30
2022-09-02T00:03:43.381Z,1.23
2022-09-02T00:06:10.752Z,0.95
2022-09-02T00:08:37.539Z,1.50
2022-09-02T00:11:06.196Z,1.00
2022-09-02T00:13:36.605Z,1.10
2022-09-02T00:16:05.171Z,1.10
2022-09-02T00:18:32.481Z,0.98
2022-09-02T00:21:00.083Z,0.90
2022-09-02T00:23:27.496Z,0.90
2022-09-02T00:25:54.271Z,0.73
2022-09-02T00:28:21.673Z,1.02
2022-09-02T00:30:48.533Z,1.00
2022-09-02T00:33:16.318Z,0.73
2022-09-02T00:35:44.293Z,1.15
2022-09-02T00:38:11.711Z,1.00
2022-09-02T00:40:39.699Z,0.80
2022-09-02T00:43:08.854Z,0.70
2022-09-02T00:45:36.383Z,0.85
2022-09-02T00:48:03.933Z,0.90
2022-09-02T00:50:34.506Z,0.80
2022-09-02T00:53:08.856Z,1.02
2022-09-02T00:55:41.362Z,0.75
2022-09-02T00:58:25.910Z,0.80
2022-09-02T01:00:57.673Z,0.90
2022-09-02T01:03:28.843Z,0.95
2022-09-02T01:05:57.231Z,0.82
2022-09-02T01:08:27.447Z,1.10
2022-09-02T01:10:57.313Z,0.88
2022-09-02T01:13:27.327Z,0.70
2022-09-02T01:16:11.612Z,0.93
2022-09-02T01:18:39.777Z,0.77
2022-09-02T01:21:06.961Z,0.80
2022-09-02T01:23:36.081Z,1.15
2022-09-02T01:26:07.379Z,0.73
2022-09-02T01:28:35.237Z,1.00
2022-09-02T01:31:02.377Z,0.90
2022-09-02T01:33:29.486Z,0.70
2022-09-02T01:35:59.711Z,0.95
2022-09-02T01:38:27.123Z,1.10
2022-09-02T01:40:54.071Z,1.02
2022-09-02T01:43:26.636Z,1.00
2022-09-02T01:45:54.957Z,1.10
2022-09-02T01:48:24.503Z,1.10
2022-09-02T01:50:58.644Z,1.10
2022-09-02T01:53:26.447Z,1.00
2022-09-02T01:55:54.427Z,0.90
2022-09-02T01:58:21.436Z,0.93
2022-09-02T02:00:49.321Z,0.90
2022-09-02T02:03:16.584Z,1.02
2022-09-02T02:05:43.449Z,1.10
2022-09-02T02:08:13.980Z,1.00
2022-09-02T02:10:42.979Z,1.02
2022-09-02T02:13:11.821Z,1.02
2022-09-02T02:15:41.600Z,1.08
2022-09-02T02:18:09.203Z,0.90
2022-09-02T02:20:36.523Z,1.15
2022-09-02T02:23:05.716Z,1.10
2022-09-02T02:25:32.823Z,1.05
2022-09-02T02:27:59.734Z,0.90
2022-09-02T02:30:27.291Z,1.08
2022-09-02T02:32:54.186Z,1.00
2022-09-02T02:35:22.030Z,0.90
2022-09-02T02:37:50.584Z,1.05
2022-09-02T02:40:20.547Z,0.85
2022-09-02T02:42:48.948Z,1.17
2022-09-02T02:45:16.660Z,1.00
2022-09-02T02:47:46.211Z,1.05
2022-09-02T02:50:17.217Z,1.17
2022-09-02T02:52:45.891Z,0.75
2022-09-02T02:55:15.497Z,0.88
2022-09-02T02:57:43.398Z,1.00
2022-09-02T03:00:21.090Z,1.07
2022-09-02T03:02:49.735Z,1.00
2022-09-02T03:05:20.101Z,1.02
2022-09-02T03:07:47.530Z,1.00
2022-09-02T03:10:15.961Z,1.10
2022-09-02T03:12:47.628Z,1.20
2022-09-02T03:15:18.739Z,1.13
2022-09-02T03:17:48.493Z,0.95
2022-09-02T03:20:17.591Z,1.10
2022-09-02T03:22:50.924Z,1.10
2022-09-02T03:25:20.770Z,1.10
2022-09-02T03:27:48.932Z,0.98
2022-09-02T03:30:22.756Z,1.00
2022-09-02T03:32:50.847Z,1.20
2022-09-02T03:35:20.207Z,0.88
2022-09-02T03:37:48.171Z,1.10
2022-09-02T03:40:20.391Z,0.90
2022-09-02T03:42:47.917Z,1.10
2022-09-02T03:45:16.085Z,1.00
2022-09-02T03:47:51.144Z,1.05
2022-09-02T03:50:41.148Z,1.08
2022-09-02T03:53:18.136Z,0.88
2022-09-02T03:55:47.571Z,0.80
2022-09-02T03:58:17.694Z,1.00
2022-09-02T04:00:51.519Z,0.80
2022-09-02T04:03:18.857Z,0.98
2022-09-02T04:05:50.854Z,0.90
2022-09-02T04:08:19.799Z,1.02
2022-09-02T04:10:47.281Z,0.93
2022-09-02T04:13:14.260Z,0.93
2022-09-02T04:15:44.359Z,0.82
2022-09-02T04:18:12.521Z,0.70
2022-09-02T04:20:40.380Z,0.80
2022-09-02T04:23:07.975Z,0.90
2022-09-02T04:25:42.338Z,0.82
2022-09-02T04:28:11.004Z,1.10
2022-09-02T04:30:42.453Z,1.17
2022-09-02T04:33:11.308Z,1.10
2022-09-02T04:35:42.496Z,0.80
2022-09-02T04:38:10.030Z,1.17
2022-09-02T04:40:40.893Z,0.85
2022-09-02T04:43:08.314Z,0.88
2022-09-02T04:45:35.716Z,1.17
2022-09-02T04:48:03.311Z,0.90
2022-09-02T04:50:31.290Z,0.77
2022-09-02T04:52:58.654Z,1.13
2022-09-02T04:55:25.972Z,1.10
2022-09-02T04:57:53.262Z,0.80
2022-09-02T05:00:20.798Z,1.10
2022-09-02T05:02:48.539Z,0.68
2022-09-02T05:05:15.545Z,0.90
2022-09-02T05:07:42.553Z,0.90
2022-09-02T05:10:10.074Z,1.00
2022-09-02T05:12:41.957Z,0.90
2022-09-02T05:15:10.777Z,0.93
2022-09-02T05:17:38.253Z,1.23
2022-09-02T05:20:07.900Z,0.80
2022-09-02T05:22:37.270Z,0.80
2022-09-02T05:25:08.810Z,0.80
2022-09-02T05:27:36.449Z,0.93
2022-09-02T05:30:05.306Z,0.82
2022-09-02T05:32:37.773Z,0.90
2022-09-02T05:35:06.296Z,0.88
2022-09-02T05:37:35.590Z,0.85
2022-09-02T05:40:05.057Z,1.05
2022-09-02T05:42:33.857Z,0.90
2022-09-02T05:45:00.566Z,0.90
2022-09-02T05:47:28.004Z,1.00
2022-09-02T05:49:55.196Z,1.10
2022-09-02T05:52:23.468Z,0.82
2022-09-02T05:54:53.037Z,1.20
2022-09-02T05:57:22.670Z,0.60
2022-09-02T06:00:06.298Z,0.60
2022-09-02T06:02:43.900Z,0.88
2022-09-02T06:05:25.401Z,0.80
2022-09-02T06:08:00.014Z,0.70
2022-09-02T06:10:27.385Z,0.57
2022-09-02T06:12:54.291Z,0.90
2022-09-02T06:15:27.719Z,0.75
2022-09-02T06:17:59.497Z,0.60
2022-09-02T06:20:29.239Z,0.90
2022-09-02T06:22:55.924Z,0.80
2022-09-02T06:25:23.671Z,0.75
2022-09-02T06:27:51.720Z,0.60
2022-09-02T06:30:18.682Z,0.80
2022-09-02T06:32:50.625Z,0.90
2022-09-02T06:35:19.979Z,0.68
2022-09-02T06:37:46.885Z,0.80
2022-09-02T06:40:15.005Z,0.73
2022-09-02T06:42:42.546Z,0.93
2022-09-02T06:45:26.531Z,0.85
2022-09-02T06:47:55.541Z,0.80
2022-09-02T06:50:22.888Z,0.82
2022-09-02T06:52:50.469Z,0.65
2022-09-02T06:55:18.237Z,0.98
2022-09-02T06:57:45.188Z,0.80
2022-09-02T07:00:13.974Z,0.70
2022-09-02T07:02:42.924Z,1.00
2022-09-02T07:05:10.588Z,0.60
2022-09-02T07:07:41.125Z,0.82
2022-09-02T07:10:13.850Z,1.00
2022-09-02T07:12:44.582Z,0.70
2022-09-02T07:15:14.979Z,0.85
2022-09-02T07:17:43.007Z,0.80
2022-09-02T07:20:14.831Z,0.90
2022-09-02T07:25:19.202Z,0.90
2022-09-02T07:27:48.400Z,1.10
2022-09-02T07:30:15.219Z,0.82
2022-09-02T07:32:44.525Z,0.90
2022-09-02T07:35:11.522Z,0.88
2022-09-02T07:37:39.816Z,0.80
2022-09-02T07:40:11.257Z,1.05
2022-09-02T07:42:38.555Z,0.82
2022-09-02T07:45:06.887Z,0.80
2022-09-02T07:47:35.006Z,0.98
2022-09-02T07:50:21.780Z,0.90
2022-09-02T07:52:58.149Z,0.70
2022-09-02T07:55:27.593Z,0.80
2022-09-02T07:57:55.746Z,0.90
2022-09-02T08:00:27.680Z,1.10
2022-09-02T08:02:58.550Z,0.70
2022-09-02T08:05:32.646Z,0.50
2022-09-02T08:08:00.484Z,0.70
2022-09-02T08:10:29.576Z,0.68
2022-09-02T08:12:57.982Z,0.70
2022-09-02T08:15:28.002Z,0.90
2022-09-02T08:17:56.459Z,0.60
2022-09-02T08:20:23.393Z,0.70
2022-09-02T08:22:59.285Z,0.85
2022-09-02T08:25:37.898Z,0.80
2022-09-02T08:28:05.040Z,0.85
2022-09-02T08:30:31.864Z,0.90
2022-09-02T08:32:58.684Z,0.95
2022-09-02T08:35:32.017Z,0.65
2022-09-02T08:38:02.110Z,0.82
2022-09-02T08:40:36.646Z,0.68
2022-09-02T08:43:10.432Z,0.80
2022-09-02T08:45:38.881Z,0.85
2022-09-02T08:48:34.023Z,0.80
2022-09-02T08:51:09.554Z,0.70
2022-09-02T08:53:48.706Z,0.63
2022-09-02T08:56:18.316Z,0.60
2022-09-02T09:01:41.270Z,0.60
2022-09-02T09:04:17.611Z,0.70
2022-09-02T09:07:31.836Z,0.60
2022-09-02T09:10:35.728Z,0.63
2022-09-02T09:13:11.390Z,0.65
2022-09-02T09:15:47.947Z,0.60
2022-09-02T09:18:19.311Z,0.80
2022-09-02T09:20:47.101Z,1.02
2022-09-02T09:23:29.703Z,0.60
2022-09-02T09:26:07.242Z,0.82
2022-09-02T09:28:41.873Z,0.80
2022-09-02T09:31:12.579Z,0.80
2022-09-02T09:33:39.510Z,0.73
2022-09-02T09:36:06.793Z,0.75
2022-09-02T09:38:36.682Z,0.90
2022-09-02T09:41:16.491Z,0.88
2022-09-02T09:43:43.815Z,0.63
2022-09-02T09:46:32.337Z,0.82
2022-09-02T09:48:59.577Z,0.90
2022-09-02T09:51:26.380Z,0.80
2022-09-02T09:53:53.770Z,1.17
2022-09-02T09:56:27.258Z,0.90
2022-09-02T09:58:54.189Z,1.17
2022-09-02T10:01:23.975Z,0.88
2022-09-02T10:03:57.983Z,0.95
2022-09-02T10:06:33.801Z,0.60
2022-09-02T10:09:15.872Z,0.90
2022-09-02T10:11:59.263Z,0.90
2022-09-02T10:14:41.648Z,0.80
2022-09-02T10:17:17.414Z,0.70
2022-09-02T10:19:53.591Z,0.90
2022-09-02T10:22:58.918Z,0.90
2022-09-02T10:25:58.238Z,0.77
2022-09-02T10:29:04.275Z,1.05
2022-09-02T10:32:05.298Z,0.90
2022-09-02T10:35:04.463Z,0.77
2022-09-02T10:37:48.368Z,0.80
2022-09-02T10:40:19.472Z,0.88
2022-09-02T10:42:52.102Z,0.90
2022-09-02T10:45:35.992Z,1.00
2022-09-02T10:48:27.448Z,1.10
2022-09-02T10:51:17.111Z,0.90
2022-09-02T10:57:14.061Z,0.80
2022-09-02T10:59:48.972Z,1.20
2022-09-02T11:02:30.828Z,0.80
2022-09-02T11:05:24.630Z,0.90
2022-09-02T11:07:59.180Z,0.80
2022-09-02T11:10:39.043Z,0.90
2022-09-02T11:13:21.106Z,1.00
2022-09-02T11:15:57.986Z,1.00
2022-09-02T11:19:02.578Z,0.93
2022-09-02T11:21:48.195Z,0.90
2022-09-02T11:24:21.115Z,0.80
2022-09-02T11:27:11.826Z,1.00
2022-09-02T11:30:11.647Z,0.88
2022-09-02T11:32:44.147Z,1.23
2022-09-02T11:35:16.858Z,0.80
2022-09-02T11:37:49.281Z,0.95
2022-09-02T11:40:34.206Z,1.08
2022-09-02T11:43:32.045Z,0.80
2022-09-02T11:46:08.291Z,0.80
2022-09-02T11:48:44.246Z,0.93
2022-09-02T11:51:43.342Z,1.08
2022-09-02T11:54:15.717Z,0.70
2022-09-02T11:56:47.698Z,0.80
2022-09-02T11:59:52.600Z,0.85
2022-09-02T12:02:46.089Z,0.90
2022-09-02T12:05:31.949Z,1.00
2022-09-02T12:08:28.108Z,0.80
2022-09-02T12:10:59.698Z,1.00
2022-09-02T12:16:21.271Z,0.90
2022-09-02T12:19:01.235Z,0.82
2022-09-02T12:21:30.180Z,0.90
2022-09-02T12:23:57.021Z,1.10
2022-09-02T12:26:25.993Z,0.95
2022-09-02T12:29:10.016Z,1.00
2022-09-02T12:31:42.764Z,1.00
2022-09-02T12:34:35.818Z,1.20
2022-09-02T12:37:02.951Z,1.00
2022-09-02T12:39:30.417Z,0.90
2022-09-02T12:42:20.720Z,0.90
2022-09-02T12:45:05.396Z,0.82
2022-09-02T12:47:50.600Z,0.90
2022-09-02T12:50:25.267Z,1.08
2022-09-02T12:53:08.522Z,1.00
2022-09-02T12:55:36.846Z,1.13
2022-09-02T12:58:14.726Z,0.90
2022-09-02T13:01:10.172Z,1.00
2022-09-02T13:03:51.948Z,1.23
2022-09-02T13:06:40.402Z,0.90
2022-09-02T13:09:27.116Z,0.88
2022-09-02T13:12:20.020Z,1.00
2022-09-02T13:15:19.081Z,0.82
2022-09-02T13:18:10.030Z,0.90
2022-09-02T13:21:06.078Z,1.00
2022-09-02T13:23:44.843Z,1.00
2022-09-02T13:26:51.116Z,1.00
2022-09-02T13:29:36.255Z,1.10
2022-09-02T13:32:14.350Z,0.90
2022-09-02T13:34:43.841Z,1.00
2022-09-02T13:37:41.833Z,1.00
2022-09-02T13:40:23.620Z,0.90
2022-09-02T13:42:55.780Z,1.02
2022-09-02T13:45:28.365Z,1.00
2022-09-02T13:47:58.245Z,1.17
2022-09-02T13:50:27.938Z,0.93
2022-09-02T13:55:53.386Z,1.15
2022-09-02T13:58:29.262Z,0.70
2022-09-02T14:01:01.879Z,0.88
2022-09-02T14:03:32.585Z,1.00
2022-09-02T14:06:00.854Z,1.02
2022-09-02T14:08:29.354Z,1.00
2022-09-02T14:10:58.386Z,0.90
2022-09-02T14:13:25.537Z,1.30
2022-09-02T14:15:52.280Z,1.10
2022-09-02T14:18:21.292Z,0.90
2022-09-02T14:21:00.265Z,1.00
2022-09-02T14:23:30.783Z,0.80
2022-09-02T14:26:00.106Z,1.00
2022-09-02T14:28:29.931Z,0.77
2022-09-02T14:31:08.899Z,1.00
2022-09-02T14:33:44.690Z,0.90
2022-09-02T14:36:26.329Z,0.93
2022-09-02T14:38:55.761Z,0.90
2022-09-02T14:41:24.940Z,0.85
2022-09-02T14:44:00.401Z,0.80
2022-09-02T14:46:30.489Z,1.02
2022-09-02T14:49:06.598Z,0.80
2022-09-02T14:51:43.069Z,0.75
2022-09-02T14:54:10.306Z,1.02
2022-09-02T14:56:53.719Z,0.90
2022-09-02T14:59:20.889Z,0.90
2022-09-02T15:01:51.541Z,0.90
2022-09-02T15:04:19.532Z,1.10
2022-09-02T15:06:47.267Z,1.13
2022-09-02T15:09:18.320Z,0.98
2022-09-02T15:11:51.159Z,0.90
2022-09-02T15:14:17.885Z,1.00
2022-09-02T15:16:44.876Z,1.10
2022-09-02T15:19:11.642Z,1.05
2022-09-02T15:21:38.414Z,1.10
2022-09-02T15:24:05.489Z,0.80
2022-09-02T15:26:32.164Z,0.80
2022-09-02T15:28:58.936Z,0.85
2022-09-02T15:31:26.611Z,0.73
2022-09-02T15:33:53.462Z,0.90
2022-09-02T15:36:21.369Z,1.00
2022-09-02T15:38:48.208Z,0.70
2022-09-02T15:41:20.388Z,0.80
2022-09-02T15:43:48.360Z,0.88
2022-09-02T15:46:19.271Z,0.73
2022-09-02T15:48:46.772Z,0.93
2022-09-02T15:51:15.645Z,1.13
2022-09-02T15:53:42.775Z,1.17
2022-09-02T15:56:16.158Z,0.80
2022-09-02T15:58:42.937Z,0.85
2022-09-02T16:01:09.760Z,0.88
2022-09-02T16:03:36.801Z,0.80
2022-09-02T16:06:06.455Z,1.00
2022-09-02T16:08:34.431Z,1.30
2022-09-02T16:11:07.384Z,1.10
2022-09-02T16:13:35.250Z,1.00
2022-09-02T16:16:08.333Z,1.05
2022-09-02T16:18:36.314Z,0.90
2022-09-02T16:21:04.323Z,1.90
2022-09-02T16:23:31.601Z,0.80
2022-09-02T16:26:19.976Z,1.08
2022-09-02T16:28:47.324Z,1.67
2022-09-02T16:31:20.070Z,0.80
2022-09-02T16:34:01.005Z,0.90
2022-09-02T16:36:33.097Z,1.05
2022-09-02T16:39:01.463Z,0.80
2022-09-02T16:41:34.497Z,0.80
2022-09-02T16:44:07.801Z,0.80
2022-09-02T16:46:36.694Z,0.70
2022-09-02T16:49:04.037Z,0.98
2022-09-02T16:51:30.966Z,0.90
2022-09-02T16:54:00.206Z,1.00
2022-09-02T16:56:27.877Z,0.80
2022-09-02T16:58:55.006Z,0.93
2022-09-02T17:01:23.243Z,0.80
2022-09-02T17:03:50.841Z,1.10
2022-09-02T17:06:18.252Z,0.90
2022-09-02T17:08:44.947Z,0.77
2022-09-02T17:11:30.025Z,0.80
2022-09-02T17:14:09.326Z,0.70
2022-09-02T17:16:41.586Z,0.75
2022-09-02T17:19:10.325Z,0.95
2022-09-02T17:21:48.324Z,0.88
2022-09-02T17:24:15.743Z,0.80
2022-09-02T17:26:46.771Z,1.00
2022-09-02T17:29:47.120Z,1.05
2022-09-02T17:32:06.124Z,0.73
2022-09-02T17:34:33.856Z,0.90
2022-09-02T17:37:00.642Z,0.90
2022-09-02T17:39:27.555Z,0.77
2022-09-02T17:41:54.517Z,0.70
2022-09-02T17:44:23.286Z,1.08
2022-09-02T17:46:51.012Z,1.10
2022-09-02T17:49:18.488Z,0.90
2022-09-02T17:51:46.613Z,0.88
2022-09-02T17:54:14.517Z,1.50
2022-09-02T17:57:00.091Z,2.10
2022-09-02T17:59:51.279Z,1.85
2022-09-02T18:02:40.496Z,1.90
2022-09-02T18:05:14.194Z,1.58
2022-09-02T18:07:44.313Z,1.00
2022-09-02T18:10:14.653Z,1.02
2022-09-02T18:12:42.879Z,0.82
2022-09-02T18:15:15.765Z,0.90
2022-09-02T18:17:48.767Z,1.00
2022-09-02T18:20:18.686Z,1.20
2022-09-02T18:23:15.551Z,1.00
2022-09-02T18:26:03.971Z,0.90
2022-09-02T18:28:39.918Z,1.05
2022-09-02T18:31:06.689Z,0.70
2022-09-02T18:34:03.965Z,1.00
2022-09-02T18:37:06.286Z,1.13
2022-09-02T18:40:04.160Z,0.90
2022-09-02T18:43:02.250Z,1.00
2022-09-02T18:45:33.959Z,1.00
2022-09-02T18:48:07.945Z,1.10
2022-09-02T18:50:53.580Z,0.90
2022-09-02T18:53:28.353Z,0.80
2022-09-02T18:55:56.344Z,1.02
2022-09-02T18:58:42.236Z,1.30
2022-09-02T19:01:25.636Z,1.00
2022-09-02T19:03:52.898Z,1.10
2022-09-02T19:06:22.426Z,1.42
2022-09-02T19:08:58.063Z,1.10
2022-09-02T19:11:25.861Z,1.05
2022-09-02T19:14:00.928Z,1.33
2022-09-02T19:16:37.740Z,1.20
2022-09-02T19:19:05.021Z,1.10
2022-09-02T19:21:48.586Z,1.30
2022-09-02T19:24:38.918Z,1.35
2022-09-02T19:27:09.184Z,1.40
2022-09-02T19:29:40.065Z,1.40
2022-09-02T19:32:07.280Z,1.40
2022-09-02T19:34:40.660Z,1.40
2022-09-02T19:37:08.170Z,1.27
2022-09-02T19:39:35.244Z,1.30
2022-09-02T19:42:02.005Z,1.42
2022-09-02T19:44:28.926Z,1.40
2022-09-02T19:47:44.252Z,1.30
2022-09-02T19:49:43.924Z,1.48
2022-09-02T19:52:11.344Z,1.42
2022-09-02T19:54:38.859Z,1.23
2022-09-02T19:57:05.705Z,1.40
2022-09-02T19:59:33.183Z,1.58
2022-09-02T20:01:59.941Z,1.33
2022-09-02T20:04:29.766Z,1.30
2022-09-02T20:06:58.802Z,1.35
2022-09-02T20:09:25.767Z,1.40
2022-09-02T20:11:56.435Z,1.30
2022-09-02T20:14:23.373Z,1.35
2022-09-02T20:17:00.187Z,1.50
2022-09-02T20:19:27.148Z,1.60
2022-09-02T20:21:53.927Z,1.60
2022-09-02T20:24:31.715Z,1.35
2022-09-02T20:27:36.099Z,1.50
2022-09-02T20:30:13.268Z,1.48
2022-09-02T20:33:08.685Z,1.40
2022-09-02T20:36:02.629Z,1.33
2022-09-02T20:38:35.198Z,1.05
2022-09-02T20:41:20.373Z,1.35
2022-09-02T20:44:39.460Z,1.40
2022-09-02T20:47:26.634Z,1.25
2022-09-02T20:49:56.145Z,1.30
2022-09-02T20:52:54.383Z,1.30
2022-09-02T20:55:37.164Z,1.48
2022-09-02T20:58:41.027Z,1.23
2022-09-02T21:01:11.974Z,1.20
2022-09-02T21:03:56.950Z,1.30
2022-09-02T21:06:31.889Z,1.13
2022-09-02T21:09:13.991Z,1.08
2022-09-02T21:11:54.361Z,1.30
2022-09-02T21:14:26.019Z,1.23
2022-09-02T21:17:03.477Z,1.73
2022-09-02T21:19:39.693Z,1.33
2022-09-02T21:22:14.434Z,1.30
2022-09-02T21:24:57.000Z,1.08
2022-09-02T21:27:35.407Z,1.30
2022-09-02T21:30:08.575Z,1.30
2022-09-02T21:32:45.319Z,1.10
2022-09-02T21:35:20.156Z,0.93
2022-09-02T21:37:50.791Z,1.08
2022-09-02T21:40:20.174Z,1.17
2022-09-02T21:43:11.959Z,1.13
2022-09-02T21:45:59.252Z,1.20
2022-09-02T21:49:07.595Z,1.33
2022-09-02T21:51:41.905Z,0.98
2022-09-02T21:54:43.859Z,1.45
2022-09-02T21:57:35.489Z,1.20
2022-09-02T22:00:11.359Z,1.50
2022-09-02T22:03:00.717Z,1.42
2022-09-02T22:05:41.841Z,1.05
2022-09-02T22:08:33.650Z,1.45
2022-09-02T22:11:33.046Z,1.27
2022-09-02T22:14:14.509Z,1.35
2022-09-02T22:17:05.245Z,1.33
2022-09-02T22:19:34.286Z,1.30
2022-09-02T22:22:15.361Z,1.13
2022-09-02T22:24:42.218Z,1.23
2022-09-02T22:27:34.223Z,1.40
2022-09-02T22:30:14.507Z,1.30
2022-09-02T22:32:46.598Z,1.10
2022-09-02T22:35:27.900Z,1.40
2022-09-02T22:38:16.624Z,1.60
2022-09-02T22:40:50.484Z,1.30
2022-09-02T22:43:23.187Z,1.25
2022-09-02T22:46:22.704Z,1.40
2022-09-02T22:49:14.461Z,1.80
2022-09-02T22:52:07.328Z,1.80
2022-09-02T22:54:34.126Z,2.00
2022-09-02T22:57:32.800Z,1.80
2022-09-02T23:00:11.988Z,2.33
2022-09-02T23:02:45.802Z,2.05
2022-09-02T23:05:45.311Z,2.08
2022-09-02T23:11:07.201Z,1.77
2022-09-02T23:13:43.176Z,2.00
2022-09-02T23:16:26.107Z,1.88
2022-09-02T23:19:04.697Z,2.25
2022-09-02T23:21:45.320Z,1.90
2022-09-02T23:24:27.095Z,2.10
2022-09-02T23:27:21.166Z,1.90
2022-09-02T23:29:51.517Z,1.95
2022-09-02T23:32:42.525Z,2.10
2022-09-02T23:35:33.849Z,2.05
2022-09-02T23:38:33.162Z,1.80
2022-09-02T23:41:07.753Z,2.00
2022-09-02T23:43:34.851Z,1.98
2022-09-02T23:46:26.717Z,1.75
2022-09-02T23:49:22.895Z,1.67
2022-09-02T23:52:10.283Z,1.95
2022-09-02T23:54:42.790Z,1.80
2022-09-02T23:57:17.406Z,2.00
2022-09-02T23:59:50.348Z,1.92
